Warning: file_get_contents(/server/czul.ca/includes/../prompts/prompts.aboutus.json): failed to open stream: No such file or directory in /server/czul.ca/includes/prompts.inc.php on line 8

Warning: Invalid argument supplied for foreach() in /server/czul.ca/includes/prompts.inc.php on line 9

Warning: file_get_contents(/server/czul.ca/includes/../prompts/prompts.aboutus.json): failed to open stream: No such file or directory in /server/czul.ca/includes/prompts.inc.php on line 8

Warning: Invalid argument supplied for foreach() in /server/czul.ca/includes/prompts.inc.php on line 9

Warning: file_get_contents(/server/czul.ca/includes/../prompts/prompts.aboutus.json): failed to open stream: No such file or directory in /server/czul.ca/includes/prompts.inc.php on line 8

Warning: Invalid argument supplied for foreach() in /server/czul.ca/includes/prompts.inc.php on line 9
CZUL - FIR virtuelle de Montréal

CYPX

Puvirnituq Airport

{{ICAO_CODE}} CYPX
{{IATA_CODE}} YPX
{{NAME}} Puvirnituq Airport
{{LOCATION}} Puvirnituq, Quebec, CA
{{ELEVATION}} 83 {{FEET}} / 25.3 {{METERS}}
{{LATITUDE}} 60.05222222
{{LONGITUDE}} -77.28750000
{{METAR}} CYPX 171100Z AUTO 12015KT 9SM BKN014 OVC025 00/M01 A2950 RMK SLP995
{{EXTRA_INFO}} {{DISPLAY_NOTAMS}}
{{DISPLAY_CHARTS}}
{{RUNWAY}} {{LENGTH}} {{WIDTH}} {{SURFACE}} {{ELEVATION}}
01 6299 ft 148 ft GVL 54 ft
19 6299 ft 148 ft GVL 83 ft